sensor_id;sensor_type;location;lat;lon;timestamp;P1;durP1;ratioP1;P2;durP2;ratioP2
23310;SDS011;11828;51.508;18.118;2023-08-06T00:00:38;260.88;;;77.50;;
23310;SDS011;11828;51.508;18.118;2023-08-06T00:03:25;269.95;;;79.57;;
23310;SDS011;11828;51.508;18.118;2023-08-06T00:05:51;264.38;;;78.93;;
23310;SDS011;11828;51.508;18.118;2023-08-06T00:08:17;263.15;;;79.25;;
23310;SDS011;11828;51.508;18.118;2023-08-06T00:10:43;266.20;;;78.38;;
23310;SDS011;11828;51.508;18.118;2023-08-06T00:13:09;260.85;;;78.45;;
23310;SDS011;11828;51.508;18.118;2023-08-06T00:15:36;266.10;;;79.38;;
23310;SDS011;11828;51.508;18.118;2023-08-06T00:18:02;268.77;;;79.03;;
23310;SDS011;11828;51.508;18.118;2023-08-06T00:20:28;261.67;;;79.00;;
23310;SDS011;11828;51.508;18.118;2023-08-06T00:22:54;258.98;;;78.35;;
23310;SDS011;11828;51.508;18.118;2023-08-06T00:25:20;263.15;;;78.78;;
23310;SDS011;11828;51.508;18.118;2023-08-06T00:27:46;269.27;;;80.05;;
23310;SDS011;11828;51.508;18.118;2023-08-06T00:30:12;264.08;;;79.00;;
23310;SDS011;11828;51.508;18.118;2023-08-06T00:32:39;261.25;;;78.25;;
23310;SDS011;11828;51.508;18.118;2023-08-06T00:35:05;263.30;;;78.30;;
23310;SDS011;11828;51.508;18.118;2023-08-06T00:37:32;256.77;;;78.63;;
23310;SDS011;11828;51.508;18.118;2023-08-06T00:39:58;262.33;;;79.68;;
23310;SDS011;11828;51.508;18.118;2023-08-06T00:42:24;258.15;;;78.07;;
23310;SDS011;11828;51.508;18.118;2023-08-06T00:44:50;253.35;;;77.10;;
23310;SDS011;11828;51.508;18.118;2023-08-06T00:47:16;256.73;;;78.70;;
23310;SDS011;11828;51.508;18.118;2023-08-06T00:49:42;258.30;;;78.10;;
23310;SDS011;11828;51.508;18.118;2023-08-06T00:52:09;256.30;;;77.55;;
23310;SDS011;11828;51.508;18.118;2023-08-06T00:54:35;259.42;;;78.85;;
23310;SDS011;11828;51.508;18.118;2023-08-06T00:57:02;259.77;;;78.07;;
23310;SDS011;11828;51.508;18.118;2023-08-06T00:59:30;251.80;;;77.40;;
23310;SDS011;11828;51.508;18.118;2023-08-06T01:01:57;256.88;;;77.90;;
23310;SDS011;11828;51.508;18.118;2023-08-06T01:04:23;259.67;;;79.47;;
23310;SDS011;11828;51.508;18.118;2023-08-06T01:07:00;232.38;;;79.47;;
23310;SDS011;11828;51.508;18.118;2023-08-06T01:16:14;181.88;;;77.95;;
23310;SDS011;11828;51.508;18.118;2023-08-06T01:18:46;182.73;;;77.75;;
23310;SDS011;11828;51.508;18.118;2023-08-06T01:21:15;177.60;;;77.00;;
23310;SDS011;11828;51.508;18.118;2023-08-06T01:23:42;181.93;;;78.28;;
23310;SDS011;11828;51.508;18.118;2023-08-06T01:31:15;170.60;;;75.53;;
23310;SDS011;11828;51.508;18.118;2023-08-06T01:34:02;171.75;;;77.10;;
23310;SDS011;11828;51.508;18.118;2023-08-06T01:36:32;169.52;;;76.78;;
23310;SDS011;11828;51.508;18.118;2023-08-06T01:38:59;178.13;;;77.22;;
23310;SDS011;11828;51.508;18.118;2023-08-06T01:41:25;193.38;;;80.47;;
23310;SDS011;11828;51.508;18.118;2023-08-06T01:43:52;173.45;;;77.70;;
23310;SDS011;11828;51.508;18.118;2023-08-06T01:46:18;175.43;;;78.47;;
23310;SDS011;11828;51.508;18.118;2023-08-06T01:48:44;176.00;;;78.18;;
23310;SDS011;11828;51.508;18.118;2023-08-06T01:51:10;168.95;;;76.18;;
23310;SDS011;11828;51.508;18.118;2023-08-06T01:53:36;170.52;;;77.97;;
23310;SDS011;11828;51.508;18.118;2023-08-06T01:56:02;169.63;;;76.35;;
23310;SDS011;11828;51.508;18.118;2023-08-06T01:58:29;183.50;;;78.57;;
23310;SDS011;11828;51.508;18.118;2023-08-06T02:00:55;183.23;;;79.15;;
23310;SDS011;11828;51.508;18.118;2023-08-06T02:03:21;182.57;;;79.20;;
23310;SDS011;11828;51.508;18.118;2023-08-06T02:05:47;177.85;;;79.22;;
23310;SDS011;11828;51.508;18.118;2023-08-06T02:08:13;177.25;;;78.88;;
23310;SDS011;11828;51.508;18.118;2023-08-06T02:10:39;181.07;;;80.00;;
23310;SDS011;11828;51.508;18.118;2023-08-06T02:13:07;179.27;;;79.25;;
23310;SDS011;11828;51.508;18.118;2023-08-06T02:15:33;198.82;;;81.88;;
23310;SDS011;11828;51.508;18.118;2023-08-06T02:17:59;186.98;;;81.35;;
23310;SDS011;11828;51.508;18.118;2023-08-06T02:20:25;181.77;;;79.95;;
23310;SDS011;11828;51.508;18.118;2023-08-06T02:22:51;182.10;;;79.57;;
23310;SDS011;11828;51.508;18.118;2023-08-06T02:25:17;182.45;;;79.38;;
23310;SDS011;11828;51.508;18.118;2023-08-06T02:27:43;180.90;;;79.45;;
23310;SDS011;11828;51.508;18.118;2023-08-06T02:30:09;182.82;;;80.25;;
23310;SDS011;11828;51.508;18.118;2023-08-06T02:32:35;208.55;;;84.03;;
23310;SDS011;11828;51.508;18.118;2023-08-06T02:35:02;187.77;;;80.53;;
23310;SDS011;11828;51.508;18.118;2023-08-06T02:37:28;203.70;;;82.68;;
23310;SDS011;11828;51.508;18.118;2023-08-06T02:39:54;206.88;;;83.47;;
23310;SDS011;11828;51.508;18.118;2023-08-06T02:42:20;212.73;;;83.28;;
23310;SDS011;11828;51.508;18.118;2023-08-06T02:44:46;208.05;;;82.57;;
23310;SDS011;11828;51.508;18.118;2023-08-06T02:47:12;222.05;;;84.82;;
23310;SDS011;11828;51.508;18.118;2023-08-06T02:49:39;218.15;;;83.78;;
23310;SDS011;11828;51.508;18.118;2023-08-06T02:52:05;212.45;;;83.18;;
23310;SDS011;11828;51.508;18.118;2023-08-06T02:54:32;206.90;;;83.07;;
23310;SDS011;11828;51.508;18.118;2023-08-06T02:56:58;215.35;;;85.30;;
23310;SDS011;11828;51.508;18.118;2023-08-06T02:59:24;197.55;;;81.55;;
23310;SDS011;11828;51.508;18.118;2023-08-06T03:01:50;201.98;;;82.22;;
23310;SDS011;11828;51.508;18.118;2023-08-06T03:04:16;213.48;;;84.35;;
23310;SDS011;11828;51.508;18.118;2023-08-06T03:06:43;210.00;;;83.43;;
23310;SDS011;11828;51.508;18.118;2023-08-06T03:09:09;229.18;;;85.43;;
23310;SDS011;11828;51.508;18.118;2023-08-06T03:11:35;215.50;;;82.97;;
23310;SDS011;11828;51.508;18.118;2023-08-06T03:14:01;210.63;;;83.13;;
23310;SDS011;11828;51.508;18.118;2023-08-06T03:16:27;215.38;;;84.55;;
23310;SDS011;11828;51.508;18.118;2023-08-06T03:18:55;214.00;;;83.65;;
23310;SDS011;11828;51.508;18.118;2023-08-06T03:21:21;210.18;;;83.75;;
23310;SDS011;11828;51.508;18.118;2023-08-06T03:23:47;207.40;;;83.20;;
23310;SDS011;11828;51.508;18.118;2023-08-06T03:26:14;202.88;;;83.63;;
23310;SDS011;11828;51.508;18.118;2023-08-06T03:28:40;198.50;;;82.10;;
23310;SDS011;11828;51.508;18.118;2023-08-06T03:31:06;194.70;;;82.60;;
23310;SDS011;11828;51.508;18.118;2023-08-06T03:33:32;186.05;;;81.15;;
23310;SDS011;11828;51.508;18.118;2023-08-06T03:35:58;238.13;;;88.38;;
23310;SDS011;11828;51.508;18.118;2023-08-06T03:38:24;185.82;;;82.30;;
23310;SDS011;11828;51.508;18.118;2023-08-06T03:40:51;188.80;;;83.10;;
23310;SDS011;11828;51.508;18.118;2023-08-06T03:43:17;179.35;;;81.28;;
23310;SDS011;11828;51.508;18.118;2023-08-06T03:45:43;176.80;;;81.07;;
23310;SDS011;11828;51.508;18.118;2023-08-06T03:48:09;185.70;;;82.15;;
23310;SDS011;11828;51.508;18.118;2023-08-06T03:50:35;178.32;;;81.30;;
23310;SDS011;11828;51.508;18.118;2023-08-06T03:53:02;177.48;;;81.63;;
23310;SDS011;11828;51.508;18.118;2023-08-06T03:55:28;181.40;;;82.65;;
23310;SDS011;11828;51.508;18.118;2023-08-06T03:57:54;184.00;;;82.88;;
23310;SDS011;11828;51.508;18.118;2023-08-06T04:00:20;220.93;;;87.20;;
23310;SDS011;11828;51.508;18.118;2023-08-06T04:02:46;201.13;;;86.25;;
23310;SDS011;11828;51.508;18.118;2023-08-06T04:05:13;203.82;;;84.95;;
23310;SDS011;11828;51.508;18.118;2023-08-06T04:07:40;208.38;;;86.93;;
23310;SDS011;11828;51.508;18.118;2023-08-06T04:10:06;210.65;;;88.18;;
23310;SDS011;11828;51.508;18.118;2023-08-06T04:12:32;209.10;;;87.35;;
23310;SDS011;11828;51.508;18.118;2023-08-06T04:15:01;222.18;;;89.30;;
23310;SDS011;11828;51.508;18.118;2023-08-06T04:17:29;200.00;;;84.82;;
23310;SDS011;11828;51.508;18.118;2023-08-06T04:19:55;172.88;;;80.32;;
23310;SDS011;11828;51.508;18.118;2023-08-06T04:22:23;179.68;;;81.90;;
23310;SDS011;11828;51.508;18.118;2023-08-06T04:24:50;177.95;;;81.13;;
23310;SDS011;11828;51.508;18.118;2023-08-06T04:27:16;179.63;;;82.40;;
23310;SDS011;11828;51.508;18.118;2023-08-06T04:29:44;203.15;;;85.50;;
23310;SDS011;11828;51.508;18.118;2023-08-06T04:32:10;196.55;;;84.53;;
23310;SDS011;11828;51.508;18.118;2023-08-06T04:34:36;201.70;;;86.43;;
23310;SDS011;11828;51.508;18.118;2023-08-06T04:37:04;190.85;;;83.40;;
23310;SDS011;11828;51.508;18.118;2023-08-06T04:39:31;193.43;;;84.07;;
23310;SDS011;11828;51.508;18.118;2023-08-06T04:41:57;186.02;;;82.47;;
23310;SDS011;11828;51.508;18.118;2023-08-06T04:44:23;176.25;;;81.68;;
23310;SDS011;11828;51.508;18.118;2023-08-06T04:46:49;173.55;;;81.78;;
23310;SDS011;11828;51.508;18.118;2023-08-06T04:49:15;173.00;;;82.18;;
23310;SDS011;11828;51.508;18.118;2023-08-06T04:51:43;163.68;;;78.93;;
23310;SDS011;11828;51.508;18.118;2023-08-06T04:54:09;171.10;;;80.70;;
23310;SDS011;11828;51.508;18.118;2023-08-06T04:56:35;176.45;;;82.05;;
23310;SDS011;11828;51.508;18.118;2023-08-06T04:59:01;175.00;;;81.78;;
23310;SDS011;11828;51.508;18.118;2023-08-06T05:01:28;174.00;;;81.15;;
23310;SDS011;11828;51.508;18.118;2023-08-06T05:03:54;178.18;;;81.85;;
23310;SDS011;11828;51.508;18.118;2023-08-06T05:06:20;175.95;;;81.03;;
23310;SDS011;11828;51.508;18.118;2023-08-06T05:08:46;170.27;;;80.43;;
23310;SDS011;11828;51.508;18.118;2023-08-06T05:11:12;169.38;;;79.43;;
23310;SDS011;11828;51.508;18.118;2023-08-06T05:13:38;163.35;;;79.57;;
23310;SDS011;11828;51.508;18.118;2023-08-06T05:16:05;167.25;;;79.88;;
23310;SDS011;11828;51.508;18.118;2023-08-06T05:18:31;171.35;;;81.00;;
23310;SDS011;11828;51.508;18.118;2023-08-06T05:20:59;175.77;;;81.60;;
23310;SDS011;11828;51.508;18.118;2023-08-06T05:23:26;181.52;;;82.07;;
23310;SDS011;11828;51.508;18.118;2023-08-06T05:25:52;176.30;;;81.10;;
23310;SDS011;11828;51.508;18.118;2023-08-06T05:28:18;184.05;;;81.80;;
23310;SDS011;11828;51.508;18.118;2023-08-06T05:30:44;177.85;;;81.55;;
23310;SDS011;11828;51.508;18.118;2023-08-06T05:33:10;157.32;;;78.57;;
23310;SDS011;11828;51.508;18.118;2023-08-06T05:35:37;160.65;;;78.20;;
23310;SDS011;11828;51.508;18.118;2023-08-06T05:38:03;157.45;;;78.28;;
23310;SDS011;11828;51.508;18.118;2023-08-06T05:40:29;158.60;;;78.85;;
23310;SDS011;11828;51.508;18.118;2023-08-06T05:42:55;157.23;;;78.80;;
23310;SDS011;11828;51.508;18.118;2023-08-06T05:45:21;159.23;;;79.15;;
23310;SDS011;11828;51.508;18.118;2023-08-06T05:47:48;167.85;;;80.18;;
23310;SDS011;11828;51.508;18.118;2023-08-06T05:50:14;162.90;;;79.80;;
23310;SDS011;11828;51.508;18.118;2023-08-06T05:52:41;166.45;;;80.65;;
23310;SDS011;11828;51.508;18.118;2023-08-06T05:55:07;163.60;;;79.97;;
23310;SDS011;11828;51.508;18.118;2023-08-06T05:57:33;163.82;;;80.07;;
23310;SDS011;11828;51.508;18.118;2023-08-06T06:00:00;161.85;;;79.95;;
23310;SDS011;11828;51.508;18.118;2023-08-06T06:02:27;165.82;;;81.07;;
23310;SDS011;11828;51.508;18.118;2023-08-06T06:04:53;165.38;;;81.25;;
23310;SDS011;11828;51.508;18.118;2023-08-06T06:07:19;173.43;;;82.70;;
23310;SDS011;11828;51.508;18.118;2023-08-06T06:09:45;181.88;;;84.93;;
23310;SDS011;11828;51.508;18.118;2023-08-06T06:12:11;166.27;;;85.88;;
23310;SDS011;11828;51.508;18.118;2023-08-06T06:14:38;175.30;;;86.40;;
23310;SDS011;11828;51.508;18.118;2023-08-06T06:17:04;177.45;;;87.22;;
23310;SDS011;11828;51.508;18.118;2023-08-06T06:19:30;180.63;;;91.50;;
23310;SDS011;11828;51.508;18.118;2023-08-06T06:21:56;181.32;;;92.05;;
23310;SDS011;11828;51.508;18.118;2023-08-06T06:24:23;184.02;;;95.57;;
23310;SDS011;11828;51.508;18.118;2023-08-06T06:26:49;184.77;;;92.63;;
23310;SDS011;11828;51.508;18.118;2023-08-06T06:29:16;196.63;;;91.18;;
23310;SDS011;11828;51.508;18.118;2023-08-06T06:31:41;197.07;;;93.47;;
23310;SDS011;11828;51.508;18.118;2023-08-06T06:34:08;217.52;;;104.13;;
23310;SDS011;11828;51.508;18.118;2023-08-06T06:36:34;233.02;;;111.60;;
23310;SDS011;11828;51.508;18.118;2023-08-06T06:39:00;208.07;;;106.20;;
23310;SDS011;11828;51.508;18.118;2023-08-06T06:41:26;224.25;;;111.22;;
23310;SDS011;11828;51.508;18.118;2023-08-06T06:43:55;204.15;;;100.00;;
23310;SDS011;11828;51.508;18.118;2023-08-06T06:46:21;173.55;;;86.90;;
23310;SDS011;11828;51.508;18.118;2023-08-06T06:48:47;159.93;;;82.00;;
23310;SDS011;11828;51.508;18.118;2023-08-06T06:51:13;156.00;;;78.70;;
23310;SDS011;11828;51.508;18.118;2023-08-06T06:53:39;160.45;;;80.80;;
23310;SDS011;11828;51.508;18.118;2023-08-06T06:56:05;162.18;;;82.15;;
23310;SDS011;11828;51.508;18.118;2023-08-06T06:58:32;158.05;;;81.15;;
23310;SDS011;11828;51.508;18.118;2023-08-06T07:00:58;165.10;;;82.25;;
23310;SDS011;11828;51.508;18.118;2023-08-06T07:03:25;168.82;;;81.32;;
23310;SDS011;11828;51.508;18.118;2023-08-06T07:05:51;149.48;;;78.25;;
23310;SDS011;11828;51.508;18.118;2023-08-06T07:08:17;153.13;;;77.50;;
23310;SDS011;11828;51.508;18.118;2023-08-06T07:10:43;160.95;;;79.00;;
23310;SDS011;11828;51.508;18.118;2023-08-06T07:13:09;154.20;;;77.70;;
23310;SDS011;11828;51.508;18.118;2023-08-06T07:15:36;152.65;;;77.65;;
23310;SDS011;11828;51.508;18.118;2023-08-06T07:18:02;155.90;;;76.63;;
23310;SDS011;11828;51.508;18.118;2023-08-06T07:20:28;172.73;;;79.30;;
23310;SDS011;11828;51.508;18.118;2023-08-06T07:22:58;182.98;;;81.60;;
23310;SDS011;11828;51.508;18.118;2023-08-06T07:25:24;189.60;;;81.75;;
23310;SDS011;11828;51.508;18.118;2023-08-06T07:27:50;191.00;;;82.63;;
23310;SDS011;11828;51.508;18.118;2023-08-06T07:30:16;184.82;;;80.57;;
23310;SDS011;11828;51.508;18.118;2023-08-06T07:32:43;199.95;;;84.10;;
23310;SDS011;11828;51.508;18.118;2023-08-06T07:35:09;184.23;;;79.50;;
23310;SDS011;11828;51.508;18.118;2023-08-06T07:37:38;163.02;;;79.03;;
23310;SDS011;11828;51.508;18.118;2023-08-06T07:40:04;172.23;;;79.90;;
23310;SDS011;11828;51.508;18.118;2023-08-06T07:42:31;176.07;;;78.82;;
23310;SDS011;11828;51.508;18.118;2023-08-06T07:44:57;191.10;;;80.55;;
23310;SDS011;11828;51.508;18.118;2023-08-06T07:47:24;188.63;;;79.38;;
23310;SDS011;11828;51.508;18.118;2023-08-06T07:49:51;185.30;;;79.18;;
23310;SDS011;11828;51.508;18.118;2023-08-06T07:52:17;208.73;;;80.40;;
23310;SDS011;11828;51.508;18.118;2023-08-06T07:54:43;199.98;;;79.07;;
23310;SDS011;11828;51.508;18.118;2023-08-06T07:57:09;199.25;;;79.65;;
23310;SDS011;11828;51.508;18.118;2023-08-06T07:59:36;184.80;;;78.97;;
23310;SDS011;11828;51.508;18.118;2023-08-06T08:02:03;190.02;;;77.55;;
23310;SDS011;11828;51.508;18.118;2023-08-06T08:04:29;201.00;;;79.85;;
23310;SDS011;11828;51.508;18.118;2023-08-06T08:06:55;198.00;;;82.70;;
23310;SDS011;11828;51.508;18.118;2023-08-06T08:09:21;210.75;;;80.47;;
23310;SDS011;11828;51.508;18.118;2023-08-06T08:11:48;217.38;;;82.07;;
23310;SDS011;11828;51.508;18.118;2023-08-06T08:14:14;233.98;;;81.53;;
23310;SDS011;11828;51.508;18.118;2023-08-06T08:16:41;227.60;;;80.30;;
23310;SDS011;11828;51.508;18.118;2023-08-06T08:19:07;219.50;;;78.78;;
23310;SDS011;11828;51.508;18.118;2023-08-06T08:21:33;218.95;;;82.55;;
23310;SDS011;11828;51.508;18.118;2023-08-06T08:23:59;214.27;;;79.30;;
23310;SDS011;11828;51.508;18.118;2023-08-06T08:26:26;217.85;;;80.85;;
23310;SDS011;11828;51.508;18.118;2023-08-06T08:28:53;219.98;;;79.38;;
23310;SDS011;11828;51.508;18.118;2023-08-06T08:31:19;218.90;;;79.55;;
23310;SDS011;11828;51.508;18.118;2023-08-06T08:33:45;230.75;;;84.30;;
23310;SDS011;11828;51.508;18.118;2023-08-06T08:36:11;222.98;;;79.75;;
23310;SDS011;11828;51.508;18.118;2023-08-06T08:38:37;223.35;;;79.28;;
23310;SDS011;11828;51.508;18.118;2023-08-06T08:41:04;219.70;;;79.65;;
23310;SDS011;11828;51.508;18.118;2023-08-06T08:43:30;233.57;;;79.22;;
23310;SDS011;11828;51.508;18.118;2023-08-06T08:45:57;235.23;;;79.15;;
23310;SDS011;11828;51.508;18.118;2023-08-06T08:48:25;238.40;;;78.88;;
23310;SDS011;11828;51.508;18.118;2023-08-06T08:50:53;235.30;;;79.25;;
23310;SDS011;11828;51.508;18.118;2023-08-06T08:53:19;240.35;;;78.97;;
23310;SDS011;11828;51.508;18.118;2023-08-06T08:55:48;236.98;;;79.45;;
23310;SDS011;11828;51.508;18.118;2023-08-06T08:58:15;230.50;;;77.45;;
23310;SDS011;11828;51.508;18.118;2023-08-06T09:00:42;235.23;;;80.00;;
23310;SDS011;11828;51.508;18.118;2023-08-06T09:03:08;240.85;;;79.30;;
23310;SDS011;11828;51.508;18.118;2023-08-06T09:05:35;240.25;;;79.03;;
23310;SDS011;11828;51.508;18.118;2023-08-06T09:08:06;239.70;;;78.65;;
23310;SDS011;11828;51.508;18.118;2023-08-06T09:10:36;256.25;;;76.95;;
23310;SDS011;11828;51.508;18.118;2023-08-06T09:13:04;252.05;;;77.80;;
23310;SDS011;11828;51.508;18.118;2023-08-06T09:15:31;258.15;;;79.10;;
23310;SDS011;11828;51.508;18.118;2023-08-06T09:17:58;250.05;;;78.53;;
23310;SDS011;11828;51.508;18.118;2023-08-06T09:20:25;256.63;;;79.05;;
23310;SDS011;11828;51.508;18.118;2023-08-06T09:22:54;258.05;;;77.38;;
23310;SDS011;11828;51.508;18.118;2023-08-06T09:25:23;262.95;;;78.55;;
23310;SDS011;11828;51.508;18.118;2023-08-06T09:27:51;273.63;;;79.38;;
23310;SDS011;11828;51.508;18.118;2023-08-06T09:30:30;256.10;;;77.57;;
23310;SDS011;11828;51.508;18.118;2023-08-06T09:33:02;251.98;;;76.97;;
23310;SDS011;11828;51.508;18.118;2023-08-06T09:35:30;248.13;;;77.55;;
23310;SDS011;11828;51.508;18.118;2023-08-06T09:38:06;257.00;;;78.70;;
23310;SDS011;11828;51.508;18.118;2023-08-06T09:40:35;251.63;;;77.60;;
23310;SDS011;11828;51.508;18.118;2023-08-06T09:43:02;249.93;;;76.93;;
23310;SDS011;11828;51.508;18.118;2023-08-06T09:45:31;260.85;;;77.10;;
23310;SDS011;11828;51.508;18.118;2023-08-06T09:48:00;254.98;;;77.10;;
23310;SDS011;11828;51.508;18.118;2023-08-06T09:50:31;254.55;;;77.43;;
23310;SDS011;11828;51.508;18.118;2023-08-06T09:53:07;248.60;;;76.78;;
23310;SDS011;11828;51.508;18.118;2023-08-06T09:55:34;246.88;;;76.30;;
23310;SDS011;11828;51.508;18.118;2023-08-06T09:58:00;251.07;;;77.55;;
23310;SDS011;11828;51.508;18.118;2023-08-06T10:00:26;248.77;;;77.30;;
23310;SDS011;11828;51.508;18.118;2023-08-06T10:02:53;242.25;;;76.45;;
23310;SDS011;11828;51.508;18.118;2023-08-06T10:05:22;247.23;;;76.22;;
23310;SDS011;11828;51.508;18.118;2023-08-06T10:07:49;246.90;;;75.90;;
23310;SDS011;11828;51.508;18.118;2023-08-06T10:10:18;253.98;;;77.32;;
23310;SDS011;11828;51.508;18.118;2023-08-06T10:12:46;253.90;;;77.28;;
23310;SDS011;11828;51.508;18.118;2023-08-06T10:15:27;271.02;;;77.50;;
23310;SDS011;11828;51.508;18.118;2023-08-06T10:17:57;257.88;;;76.28;;
23310;SDS011;11828;51.508;18.118;2023-08-06T10:20:25;263.27;;;75.82;;
23310;SDS011;11828;51.508;18.118;2023-08-06T10:23:03;260.73;;;76.07;;
23310;SDS011;11828;51.508;18.118;2023-08-06T10:25:32;264.17;;;75.15;;
23310;SDS011;11828;51.508;18.118;2023-08-06T10:28:00;262.50;;;76.97;;
23310;SDS011;11828;51.508;18.118;2023-08-06T10:30:44;261.30;;;76.28;;
23310;SDS011;11828;51.508;18.118;2023-08-06T10:33:11;261.25;;;76.15;;
23310;SDS011;11828;51.508;18.118;2023-08-06T10:35:41;261.20;;;75.28;;
23310;SDS011;11828;51.508;18.118;2023-08-06T10:38:16;261.80;;;75.07;;
23310;SDS011;11828;51.508;18.118;2023-08-06T10:41:00;266.98;;;76.78;;
23310;SDS011;11828;51.508;18.118;2023-08-06T10:43:34;268.05;;;76.28;;
23310;SDS011;11828;51.508;18.118;2023-08-06T10:46:13;259.63;;;75.90;;
23310;SDS011;11828;51.508;18.118;2023-08-06T10:48:56;257.27;;;74.43;;
23310;SDS011;11828;51.508;18.118;2023-08-06T10:51:23;269.25;;;76.60;;
23310;SDS011;11828;51.508;18.118;2023-08-06T10:53:49;263.35;;;75.47;;
23310;SDS011;11828;51.508;18.118;2023-08-06T10:58:56;259.50;;;76.47;;
23310;SDS011;11828;51.508;18.118;2023-08-06T11:01:23;277.00;;;77.85;;
23310;SDS011;11828;51.508;18.118;2023-08-06T11:03:50;270.90;;;76.97;;
23310;SDS011;11828;51.508;18.118;2023-08-06T11:06:19;260.85;;;76.25;;
23310;SDS011;11828;51.508;18.118;2023-08-06T11:08:53;265.35;;;76.50;;
23310;SDS011;11828;51.508;18.118;2023-08-06T11:11:23;275.45;;;78.05;;
23310;SDS011;11828;51.508;18.118;2023-08-06T11:13:50;260.02;;;76.78;;
23310;SDS011;11828;51.508;18.118;2023-08-06T11:16:17;108.53;;;61.22;;
23310;SDS011;11828;51.508;18.118;2023-08-06T11:18:46;78.18;;;53.75;;
23310;SDS011;11828;51.508;18.118;2023-08-06T11:21:13;81.03;;;54.70;;
23310;SDS011;11828;51.508;18.118;2023-08-06T11:23:39;72.65;;;51.83;;
23310;SDS011;11828;51.508;18.118;2023-08-06T11:26:07;93.03;;;62.58;;
23310;SDS011;11828;51.508;18.118;2023-08-06T11:28:33;91.05;;;60.35;;
23310;SDS011;11828;51.508;18.118;2023-08-06T11:30:59;78.63;;;55.35;;
23310;SDS011;11828;51.508;18.118;2023-08-06T11:33:27;72.30;;;53.35;;
23310;SDS011;11828;51.508;18.118;2023-08-06T11:35:54;67.63;;;51.55;;
23310;SDS011;11828;51.508;18.118;2023-08-06T11:38:29;74.25;;;53.88;;
23310;SDS011;11828;51.508;18.118;2023-08-06T11:40:56;70.82;;;51.45;;
23310;SDS011;11828;51.508;18.118;2023-08-06T11:43:22;65.60;;;49.95;;
23310;SDS011;11828;51.508;18.118;2023-08-06T11:45:49;79.60;;;53.58;;
23310;SDS011;11828;51.508;18.118;2023-08-06T11:48:19;85.82;;;56.08;;
23310;SDS011;11828;51.508;18.118;2023-08-06T11:50:46;81.80;;;54.92;;
23310;SDS011;11828;51.508;18.118;2023-08-06T11:53:13;81.07;;;55.15;;
23310;SDS011;11828;51.508;18.118;2023-08-06T11:55:40;80.70;;;55.28;;
23310;SDS011;11828;51.508;18.118;2023-08-06T11:58:09;83.60;;;55.83;;
23310;SDS011;11828;51.508;18.118;2023-08-06T12:00:38;85.63;;;56.38;;
23310;SDS011;11828;51.508;18.118;2023-08-06T12:03:05;83.75;;;56.78;;
23310;SDS011;11828;51.508;18.118;2023-08-06T12:05:31;84.15;;;55.97;;
23310;SDS011;11828;51.508;18.118;2023-08-06T12:08:01;69.18;;;53.17;;
23310;SDS011;11828;51.508;18.118;2023-08-06T12:10:29;79.25;;;55.20;;
23310;SDS011;11828;51.508;18.118;2023-08-06T12:12:57;73.93;;;54.05;;
23310;SDS011;11828;51.508;18.118;2023-08-06T12:15:23;70.22;;;52.53;;
23310;SDS011;11828;51.508;18.118;2023-08-06T12:17:50;78.38;;;54.70;;
23310;SDS011;11828;51.508;18.118;2023-08-06T12:20:16;79.90;;;54.03;;
23310;SDS011;11828;51.508;18.118;2023-08-06T12:22:42;70.55;;;50.78;;
23310;SDS011;11828;51.508;18.118;2023-08-06T12:25:11;70.22;;;50.47;;
23310;SDS011;11828;51.508;18.118;2023-08-06T12:27:38;61.28;;;47.13;;
23310;SDS011;11828;51.508;18.118;2023-08-06T12:30:09;67.78;;;49.85;;
23310;SDS011;11828;51.508;18.118;2023-08-06T12:32:37;57.67;;;46.28;;
23310;SDS011;11828;51.508;18.118;2023-08-06T12:35:04;49.15;;;41.72;;
23310;SDS011;11828;51.508;18.118;2023-08-06T12:37:32;78.22;;;45.33;;
23310;SDS011;11828;51.508;18.118;2023-08-06T12:39:59;43.00;;;38.90;;
23310;SDS011;11828;51.508;18.118;2023-08-06T12:42:25;31.50;;;28.65;;
23310;SDS011;11828;51.508;18.118;2023-08-06T12:44:52;42.15;;;34.00;;
23310;SDS011;11828;51.508;18.118;2023-08-06T12:47:18;44.88;;;40.08;;
23310;SDS011;11828;51.508;18.118;2023-08-06T12:49:45;46.53;;;41.50;;
23310;SDS011;11828;51.508;18.118;2023-08-06T12:52:11;43.78;;;39.28;;
23310;SDS011;11828;51.508;18.118;2023-08-06T12:54:40;39.55;;;35.95;;
23310;SDS011;11828;51.508;18.118;2023-08-06T12:57:07;36.85;;;32.95;;
23310;SDS011;11828;51.508;18.118;2023-08-06T12:59:33;36.85;;;32.95;;
23310;SDS011;11828;51.508;18.118;2023-08-06T13:02:01;38.13;;;34.55;;
23310;SDS011;11828;51.508;18.118;2023-08-06T13:04:28;36.97;;;33.40;;
23310;SDS011;11828;51.508;18.118;2023-08-06T13:06:54;40.40;;;36.65;;
23310;SDS011;11828;51.508;18.118;2023-08-06T13:09:21;38.45;;;34.72;;
23310;SDS011;11828;51.508;18.118;2023-08-06T13:11:47;49.33;;;43.33;;
23310;SDS011;11828;51.508;18.118;2023-08-06T13:14:15;48.75;;;43.42;;
23310;SDS011;11828;51.508;18.118;2023-08-06T13:16:42;49.67;;;44.05;;
23310;SDS011;11828;51.508;18.118;2023-08-06T13:19:10;54.10;;;46.63;;
23310;SDS011;11828;51.508;18.118;2023-08-06T13:24:07;61.30;;;50.00;;
23310;SDS011;11828;51.508;18.118;2023-08-06T13:26:34;69.15;;;51.38;;
23310;SDS011;11828;51.508;18.118;2023-08-06T13:29:00;66.28;;;50.08;;
23310;SDS011;11828;51.508;18.118;2023-08-06T13:31:30;53.55;;;46.38;;
23310;SDS011;11828;51.508;18.118;2023-08-06T13:33:56;50.67;;;43.72;;
23310;SDS011;11828;51.508;18.118;2023-08-06T13:36:26;56.97;;;48.03;;
23310;SDS011;11828;51.508;18.118;2023-08-06T13:38:52;58.63;;;49.55;;
23310;SDS011;11828;51.508;18.118;2023-08-06T13:41:19;74.68;;;53.08;;
23310;SDS011;11828;51.508;18.118;2023-08-06T13:43:45;70.43;;;53.55;;
23310;SDS011;11828;51.508;18.118;2023-08-06T13:46:12;70.70;;;51.80;;
23310;SDS011;11828;51.508;18.118;2023-08-06T13:48:42;72.70;;;52.15;;
23310;SDS011;11828;51.508;18.118;2023-08-06T13:51:09;83.35;;;53.38;;
23310;SDS011;11828;51.508;18.118;2023-08-06T13:53:40;83.85;;;55.75;;
23310;SDS011;11828;51.508;18.118;2023-08-06T13:56:06;94.15;;;58.03;;
23310;SDS011;11828;51.508;18.118;2023-08-06T13:58:35;101.30;;;59.50;;
23310;SDS011;11828;51.508;18.118;2023-08-06T14:01:02;100.22;;;56.88;;
23310;SDS011;11828;51.508;18.118;2023-08-06T14:03:28;72.72;;;53.47;;
23310;SDS011;11828;51.508;18.118;2023-08-06T14:05:54;86.40;;;57.30;;
23310;SDS011;11828;51.508;18.118;2023-08-06T14:08:22;116.47;;;62.40;;
23310;SDS011;11828;51.508;18.118;2023-08-06T14:10:49;90.72;;;57.67;;
23310;SDS011;11828;51.508;18.118;2023-08-06T14:13:17;86.30;;;55.00;;
23310;SDS011;11828;51.508;18.118;2023-08-06T14:15:43;74.28;;;53.50;;